< < Back
Terminal Aerodrome Forecast


Current Version              Previous Versions:   1  2  3  4  5  6  7  8  9  

Terminal Aerodrome Forecast

359
FTUS44 KBMX 010520
TAFTCL
TAF
KTCL 010520Z 0106/0206 18004KT P6SM BKN250
     FM010800 00000KT 4SM BR FEW004 BKN250
     FM011500 24008KT P6SM SCT050
     FM011800 24008KT P6SM VCTS SCT050CB BKN250
     FM020000 20003KT P6SM OVC250=

Latest METAR

868
SAUS70 KWBC 010600 RRT
MTRTCL
METAR KTCL 010553Z 17004KT 7SM CLR 22/21 A3004 RMK AO2 SLP169 60002
T02220211 10261 20217 402670217 50004


USA.gov is the U.S. government's official web portal to all federal, state and local government web resources and services.